Time;durP1;ratioP1;P1;durP2;ratioP2;P2;SDS_P1;SDS_P2;PMS_P1;PMS_P2;Temp;Humidity;BMP_temperature;BMP_pressure;BME280_temperature;BME280_humidity;BME280_pressure;Samples;Min_cycle;Max_cycle;Signal;HPM_P1;HPM_P2
2021/05/07 00:01:16;;;;;;;6.00;3.57;;;6.60;99.90;;;;;;6295004;22;20158;-67
2021/05/07 00:03:41;;;;;;;6.40;3.47;;;6.60;99.90;;;;;;6293934;22;20660;-69
2021/05/07 00:06:07;;;;;;;3.50;2.83;;;6.60;99.90;;;;;;6288701;22;20775;-67
2021/05/07 00:08:38;;;;;;;6.53;3.73;;;6.60;99.90;;;;;;6293688;22;20150;-68
2021/05/07 00:11:09;;;;;;;3.70;3.13;;;6.60;99.90;;;;;;6323254;22;21168;-67
2021/05/07 00:13:35;;;;;;;6.30;3.80;;;6.60;99.90;;;;;;6294041;22;20700;-68
2021/05/07 00:16:01;;;;;;;7.10;4.13;;;6.60;99.90;;;;;;6298368;22;20596;-66
2021/05/07 00:18:27;;;;;;;6.20;3.30;;;6.60;99.90;;;;;;6296538;22;20547;-69
2021/05/07 00:20:52;;;;;;;4.70;3.10;;;6.60;99.90;;;;;;6295205;22;20161;-66
2021/05/07 00:23:18;;;;;;;4.43;3.27;;;6.90;99.90;;;;;;6296017;22;21151;-65
2021/05/07 00:25:46;;;;;;;4.60;3.40;;;6.60;99.90;;;;;;6291416;22;20589;-67
2021/05/07 00:28:12;;;;;;;6.20;4.03;;;6.60;99.90;;;;;;6297361;22;20165;-67
2021/05/07 00:30:39;;;;;;;3.50;3.20;;;6.60;99.90;;;;;;6299081;22;20548;-67
2021/05/07 00:35:40;;;;;;;5.97;3.60;;;6.60;99.90;;;;;;6200607;22;20651;-61
2021/05/07 00:38:06;;;;;;;5.63;3.50;;;6.60;99.90;;;;;;6172604;23;20709;-61
2021/05/07 00:40:33;;;;;;;5.70;3.40;;;6.60;99.90;;;;;;6204159;22;20539;-61
2021/05/07 00:42:59;;;;;;;4.77;3.43;;;6.70;99.90;;;;;;6198170;22;20953;-61
2021/05/07 00:45:27;;;;;;;4.33;3.47;;;6.70;99.90;;;;;;6200719;22;20626;-61
2021/05/07 00:48:01;;;;;;;3.97;3.50;;;6.80;99.90;;;;;;6197204;23;20160;-61
2021/05/07 00:50:31;;;;;;;6.63;3.33;;;6.70;99.90;;;;;;6202655;23;20522;-61
2021/05/07 00:53:00;;;;;;;6.20;3.00;;;6.70;99.90;;;;;;6191426;23;20538;-61
2021/05/07 00:55:27;;;;;;;4.50;3.10;;;6.80;99.90;;;;;;6193567;23;20586;-61
2021/05/07 00:57:53;;;;;;;4.87;3.10;;;6.70;99.90;;;;;;6195990;23;20536;-61
2021/05/07 01:00:19;;;;;;;3.43;2.93;;;6.80;99.90;;;;;;6199632;23;21142;-61
2021/05/07 01:02:44;;;;;;;3.83;3.50;;;6.80;99.90;;;;;;6198466;23;20602;-62
2021/05/07 01:05:11;;;;;;;5.17;3.10;;;6.80;99.90;;;;;;6193191;23;20619;-60
2021/05/07 01:07:36;;;;;;;7.60;3.70;;;6.80;99.90;;;;;;6196059;23;20156;-61
2021/05/07 01:10:08;;;;;;;4.97;3.23;;;6.80;99.90;;;;;;6201762;23;20547;-61
2021/05/07 01:12:38;;;;;;;5.33;3.40;;;6.80;99.90;;;;;;6204181;23;20155;-61
2021/05/07 01:15:13;;;;;;;3.30;3.00;;;6.80;99.90;;;;;;6178744;23;20602;-62
2021/05/07 01:17:42;;;;;;;4.40;3.10;;;6.80;99.90;;;;;;6186897;23;20574;-61
2021/05/07 01:20:08;;;;;;;5.97;3.60;;;6.90;99.90;;;;;;6173759;23;21122;-61
2021/05/07 01:22:37;;;;;;;6.17;3.70;;;6.80;99.90;;;;;;6211960;23;20559;-62
2021/05/07 01:25:04;;;;;;;3.53;3.13;;;6.80;99.90;;;;;;6182884;22;20938;-62
2021/05/07 01:27:33;;;;;;;4.97;2.93;;;6.80;99.90;;;;;;6213354;23;21012;-62
2021/05/07 01:30:09;;;;;;;4.30;3.40;;;6.80;99.90;;;;;;6217127;23;21134;-62
2021/05/07 01:32:36;;;;;;;4.40;3.33;;;6.80;99.90;;;;;;6217230;22;20507;-61
2021/05/07 01:35:06;;;;;;;4.47;3.57;;;6.80;99.90;;;;;;6218391;23;20603;-61
2021/05/07 01:37:32;;;;;;;6.57;4.00;;;6.80;99.90;;;;;;6200501;23;20519;-61
2021/05/07 01:39:57;;;;;;;4.87;3.23;;;6.80;99.90;;;;;;6196169;22;20559;-62
2021/05/07 01:42:23;;;;;;;4.90;3.20;;;6.80;99.90;;;;;;6175203;23;20191;-60
2021/05/07 01:44:48;;;;;;;3.80;3.43;;;6.80;99.90;;;;;;6197724;23;20220;-61
2021/05/07 01:47:16;;;;;;;4.27;3.43;;;6.80;99.90;;;;;;6195736;23;20180;-62
2021/05/07 01:49:42;;;;;;;4.23;3.33;;;6.80;99.90;;;;;;6197935;22;20152;-61
2021/05/07 01:52:07;;;;;;;3.80;3.00;;;6.80;99.90;;;;;;6173796;23;20564;-61
2021/05/07 01:54:33;;;;;;;6.03;3.60;;;6.80;99.90;;;;;;6198171;23;20200;-62
2021/05/07 01:56:58;;;;;;;4.50;3.40;;;6.80;99.90;;;;;;6198802;23;20185;-61
2021/05/07 01:59:24;;;;;;;6.50;3.70;;;6.80;99.90;;;;;;6206601;23;20161;-60
2021/05/07 02:01:49;;;;;;;5.27;3.73;;;6.80;99.90;;;;;;6207620;23;20395;-61
2021/05/07 02:04:15;;;;;;;3.90;3.50;;;6.80;99.90;;;;;;6202652;23;20232;-62
2021/05/07 02:06:40;;;;;;;4.83;3.37;;;6.80;99.90;;;;;;6201422;23;20624;-61
2021/05/07 02:09:06;;;;;;;6.23;4.40;;;6.80;99.90;;;;;;6198300;22;20283;-61
2021/05/07 02:11:31;;;;;;;3.93;3.50;;;6.80;99.90;;;;;;6200421;23;20149;-60
2021/05/07 02:13:57;;;;;;;5.43;3.60;;;6.90;99.90;;;;;;6201816;22;20212;-62
2021/05/07 02:16:28;;;;;;;4.60;3.60;;;6.80;99.90;;;;;;6214028;23;20187;-61
2021/05/07 02:18:53;;;;;;;4.17;3.77;;;6.90;99.90;;;;;;6198842;22;20559;-62
2021/05/07 02:21:19;;;;;;;5.53;3.30;;;6.90;99.90;;;;;;6200684;23;20524;-62
2021/05/07 02:23:44;;;;;;;6.23;3.80;;;6.90;99.90;;;;;;6200577;23;20215;-61
2021/05/07 02:26:10;;;;;;;6.60;3.60;;;6.90;99.90;;;;;;6201066;23;20172;-61
2021/05/07 02:28:38;;;;;;;6.43;4.10;;;6.90;99.90;;;;;;6199119;23;20160;-61
2021/05/07 02:31:08;;;;;;;6.57;3.97;;;6.90;99.90;;;;;;6200698;23;20664;-61
2021/05/07 02:33:37;;;;;;;4.03;3.20;;;6.90;99.90;;;;;;6199952;22;20587;-62
2021/05/07 02:36:04;;;;;;;4.53;3.60;;;6.90;99.90;;;;;;6197686;22;20627;-61
2021/05/07 02:38:30;;;;;;;4.73;3.53;;;6.90;99.90;;;;;;6197756;23;20627;-61
2021/05/07 02:40:56;;;;;;;5.63;3.93;;;6.90;99.90;;;;;;6202705;22;20543;-61
2021/05/07 02:43:21;;;;;;;4.47;3.67;;;7.00;99.90;;;;;;6200413;23;20196;-61
2021/05/07 02:45:49;;;;;;;6.40;4.10;;;6.90;99.90;;;;;;6201552;23;20184;-62
2021/05/07 02:48:15;;;;;;;4.40;3.37;;;6.90;99.90;;;;;;6189392;23;20171;-61
2021/05/07 02:50:42;;;;;;;6.00;3.60;;;6.90;99.90;;;;;;6201582;23;20520;-62
2021/05/07 02:53:08;;;;;;;5.97;3.90;;;6.90;99.90;;;;;;6174295;23;20953;-62
2021/05/07 02:55:36;;;;;;;4.90;3.50;;;6.90;99.90;;;;;;6211185;23;20575;-62
2021/05/07 02:58:02;;;;;;;5.83;3.47;;;6.90;99.90;;;;;;6176145;23;20587;-61
2021/05/07 03:00:27;;;;;;;3.40;3.10;;;6.90;99.90;;;;;;6199878;23;20524;-62
2021/05/07 03:02:53;;;;;;;6.20;3.60;;;7.00;99.90;;;;;;6200906;22;20182;-62
2021/05/07 03:05:23;;;;;;;5.80;3.47;;;7.10;99.90;;;;;;6171781;22;20180;-62
2021/05/07 03:07:49;;;;;;;7.53;3.97;;;7.20;99.90;;;;;;6202533;23;20172;-61
2021/05/07 03:10:19;;;;;;;4.00;3.20;;;7.10;99.90;;;;;;6201451;23;20932;-61
2021/05/07 03:12:47;;;;;;;6.50;3.77;;;7.10;99.90;;;;;;6200705;23;20157;-62
2021/05/07 03:15:15;;;;;;;8.67;4.30;;;7.00;99.90;;;;;;6203629;22;20595;-62
2021/05/07 03:17:41;;;;;;;4.90;4.43;;;7.00;99.90;;;;;;6202904;22;20646;-62
2021/05/07 03:20:09;;;;;;;6.60;3.30;;;7.10;99.90;;;;;;6171801;22;20614;-61
2021/05/07 03:22:35;;;;;;;7.03;3.10;;;7.20;99.90;;;;;;6203095;23;20517;-61
2021/05/07 03:25:00;;;;;;;3.40;2.77;;;7.10;99.90;;;;;;6193160;23;20822;-61
2021/05/07 03:27:26;;;;;;;7.07;3.53;;;7.10;99.90;;;;;;6172959;23;20539;-61
2021/05/07 03:29:52;;;;;;;5.40;2.97;;;7.00;99.90;;;;;;6201958;23;20527;-61
2021/05/07 03:32:17;;;;;;;5.57;3.17;;;7.00;99.90;;;;;;6197437;23;20152;-62
2021/05/07 03:34:43;;;;;;;4.00;3.20;;;7.00;99.90;;;;;;6198531;23;20658;-62
2021/05/07 03:37:08;;;;;;;5.53;3.47;;;7.00;99.90;;;;;;6200035;23;20180;-61
2021/05/07 03:39:34;;;;;;;7.60;2.97;;;7.00;99.90;;;;;;6200665;23;20239;-61
2021/05/07 03:41:59;;;;;;;3.57;2.50;;;7.00;99.90;;;;;;6199403;23;20152;-62
2021/05/07 03:44:25;;;;;;;2.80;2.43;;;7.00;99.90;;;;;;6175124;22;20237;-62
2021/05/07 03:46:51;;;;;;;6.60;3.53;;;7.10;99.90;;;;;;6195398;23;20690;-60
2021/05/07 03:49:16;;;;;;;3.03;2.60;;;7.10;99.90;;;;;;6177051;23;20284;-61
2021/05/07 03:51:42;;;;;;;4.13;2.80;;;7.10;99.90;;;;;;6200436;23;20145;-60
2021/05/07 03:54:07;;;;;;;2.50;2.30;;;7.00;99.90;;;;;;6196461;23;20203;-62
2021/05/07 03:56:35;;;;;;;4.17;3.10;;;7.00;99.90;;;;;;6175281;23;20410;-62
2021/05/07 03:59:05;;;;;;;3.50;3.20;;;6.90;99.90;;;;;;6202431;23;20618;-61
2021/05/07 04:01:31;;;;;;;3.47;3.00;;;7.00;99.90;;;;;;6197691;23;20559;-61
2021/05/07 04:04:00;;;;;;;5.07;3.03;;;7.00;99.90;;;;;;6198585;22;20599;-61
2021/05/07 04:06:26;;;;;;;4.00;2.80;;;6.90;99.90;;;;;;6200367;22;20180;-62
2021/05/07 04:14:16;;;;;;;3.63;3.07;;;6.90;99.90;;;;;;6203378;23;21237;-62
2021/05/07 04:16:41;;;;;;;7.83;3.23;;;6.90;99.90;;;;;;6174570;23;20591;-61
2021/05/07 04:19:07;;;;;;;2.80;2.50;;;6.90;99.90;;;;;;6198196;23;20592;-62
2021/05/07 04:21:32;;;;;;;3.50;2.70;;;6.90;99.90;;;;;;6168736;23;20251;-62
2021/05/07 04:23:58;;;;;;;5.23;3.40;;;6.90;99.90;;;;;;6194275;23;20648;-61
2021/05/07 04:26:23;;;;;;;2.80;2.60;;;7.00;99.90;;;;;;6168653;23;20614;-61
2021/05/07 04:28:49;;;;;;;2.77;2.43;;;6.90;99.90;;;;;;6191202;22;20157;-61
2021/05/07 04:31:15;;;;;;;2.90;2.60;;;6.90;99.90;;;;;;6200794;23;20155;-61
2021/05/07 04:33:40;;;;;;;3.20;2.93;;;6.90;99.90;;;;;;6190230;23;20196;-61
2021/05/07 04:36:07;;;;;;;5.70;3.43;;;6.90;99.90;;;;;;6191093;23;20196;-62
2021/05/07 04:38:32;;;;;;;3.43;3.10;;;6.90;99.90;;;;;;6198490;23;20161;-61
2021/05/07 04:40:58;;;;;;;5.57;3.47;;;7.00;99.90;;;;;;6167747;23;20909;-61
2021/05/07 04:43:24;;;;;;;3.90;3.37;;;7.00;99.90;;;;;;6201111;23;20602;-62
2021/05/07 04:45:50;;;;;;;4.73;3.70;;;7.00;99.90;;;;;;6200787;22;20680;-62
2021/05/07 04:48:16;;;;;;;4.90;4.40;;;6.90;99.90;;;;;;6192521;22;20195;-61
2021/05/07 04:50:43;;;;;;;4.50;3.77;;;6.90;99.90;;;;;;6173241;23;20624;-62
2021/05/07 04:53:09;;;;;;;4.10;3.63;;;6.90;99.90;;;;;;6190151;23;20531;-60
2021/05/07 04:55:37;;;;;;;4.70;4.20;;;7.00;99.90;;;;;;6163085;23;20647;-62
2021/05/07 04:58:03;;;;;;;5.53;4.27;;;6.90;99.90;;;;;;6196626;23;20528;-62
2021/05/07 05:00:29;;;;;;;5.40;4.00;;;6.80;99.90;;;;;;6195575;22;20756;-60
2021/05/07 05:02:55;;;;;;;6.30;4.50;;;6.90;99.90;;;;;;6195821;22;20488;-62
2021/05/07 05:05:20;;;;;;;5.43;4.10;;;7.00;99.90;;;;;;6200996;22;20176;-62
2021/05/07 05:07:56;;;;;;;5.80;4.40;;;7.00;99.90;;;;;;6199641;22;20321;-61
2021/05/07 05:10:22;;;;;;;4.87;4.00;;;7.10;99.90;;;;;;6201582;23;20144;-62
2021/05/07 05:12:48;;;;;;;5.60;4.07;;;6.90;99.90;;;;;;6199777;23;20863;-61
2021/05/07 05:15:14;;;;;;;4.53;4.13;;;6.90;99.90;;;;;;6196491;22;20598;-61
2021/05/07 05:17:40;;;;;;;4.30;3.90;;;6.90;99.90;;;;;;6192306;23;21072;-61
2021/05/07 05:20:07;;;;;;;6.17;3.83;;;6.90;99.90;;;;;;6200953;23;20551;-60
2021/05/07 05:22:33;;;;;;;3.30;2.90;;;6.90;99.90;;;;;;6204202;23;20610;-60
2021/05/07 05:25:03;;;;;;;4.10;2.40;;;6.90;99.90;;;;;;6200612;23;20611;-60
2021/05/07 05:27:32;;;;;;;3.53;3.00;;;6.90;99.90;;;;;;6202333;22;20147;-61
2021/05/07 05:29:58;;;;;;;3.37;2.40;;;6.90;99.90;;;;;;6196848;23;21068;-61
2021/05/07 05:32:24;;;;;;;2.83;2.50;;;6.70;99.90;;;;;;6212258;22;20619;-62
2021/05/07 05:34:49;;;;;;;2.33;2.10;;;6.80;99.90;;;;;;6178927;23;20882;-61
2021/05/07 05:37:15;;;;;;;2.30;2.20;;;6.60;99.90;;;;;;6207643;23;20217;-61
2021/05/07 05:39:40;;;;;;;4.60;2.50;;;6.60;99.90;;;;;;6201126;23;20167;-62
2021/05/07 05:42:06;;;;;;;5.33;2.83;;;6.60;99.90;;;;;;6202070;23;20164;-62
2021/05/07 05:44:32;;;;;;;3.60;2.20;;;6.60;99.90;;;;;;6198426;23;20212;-62
2021/05/07 05:46:57;;;;;;;2.80;2.60;;;6.60;99.90;;;;;;6194393;23;20176;-61
2021/05/07 05:49:25;;;;;;;2.50;2.30;;;6.60;99.90;;;;;;6198366;23;20187;-62
2021/05/07 05:51:51;;;;;;;2.40;2.20;;;6.70;99.90;;;;;;6201675;22;20151;-60
2021/05/07 05:54:18;;;;;;;3.63;2.90;;;6.70;99.90;;;;;;6194856;22;20591;-62
2021/05/07 05:56:45;;;;;;;3.00;2.80;;;6.80;99.90;;;;;;6192026;22;20210;-61
2021/05/07 05:59:13;;;;;;;3.97;2.77;;;6.90;99.90;;;;;;6194587;23;20596;-61
2021/05/07 06:01:39;;;;;;;3.37;3.00;;;6.90;99.90;;;;;;6197920;23;21060;-62
2021/05/07 06:04:04;;;;;;;4.87;2.93;;;6.90;99.90;;;;;;6192744;23;20614;-61
2021/05/07 06:06:30;;;;;;;3.20;2.80;;;7.10;99.90;;;;;;6186066;23;20279;-60
2021/05/07 06:08:55;;;;;;;2.93;2.63;;;7.20;99.90;;;;;;6195155;23;20582;-61
2021/05/07 06:11:21;;;;;;;2.77;2.57;;;7.20;99.90;;;;;;6199920;22;20160;-61
2021/05/07 06:13:47;;;;;;;3.53;2.47;;;7.10;99.90;;;;;;6169180;23;20200;-62
2021/05/07 06:16:12;;;;;;;4.40;2.83;;;7.10;99.90;;;;;;6171273;22;20190;-61
2021/05/07 06:18:38;;;;;;;2.73;2.53;;;7.10;99.90;;;;;;6202529;23;20626;-61
2021/05/07 06:21:04;;;;;;;2.83;2.60;;;7.20;99.90;;;;;;6198264;23;20166;-61
2021/05/07 06:23:30;;;;;;;5.43;2.70;;;7.40;99.90;;;;;;6198132;23;20248;-60
2021/05/07 06:25:58;;;;;;;3.33;2.50;;;7.50;99.90;;;;;;6195844;23;20944;-62
2021/05/07 06:28:23;;;;;;;4.63;2.60;;;7.50;99.90;;;;;;6199824;23;20171;-61
2021/05/07 06:30:49;;;;;;;3.40;2.83;;;7.40;99.90;;;;;;6168533;23;21115;-61
2021/05/07 06:33:15;;;;;;;3.70;3.33;;;7.50;99.90;;;;;;6200381;22;20206;-62
2021/05/07 06:35:40;;;;;;;4.47;3.40;;;7.50;99.90;;;;;;6151198;22;20209;-66
2021/05/07 06:38:10;;;;;;;5.97;2.87;;;7.60;99.90;;;;;;6133548;23;20640;-68
2021/05/07 06:40:38;;;;;;;3.50;2.37;;;7.60;99.90;;;;;;6131877;23;20153;-69
2021/05/07 06:43:04;;;;;;;2.77;2.57;;;7.70;99.90;;;;;;6133137;22;20529;-69
2021/05/07 06:45:30;;;;;;;3.03;2.73;;;7.80;99.90;;;;;;6133589;23;20715;-68
2021/05/07 06:47:55;;;;;;;4.00;2.60;;;7.70;99.90;;;;;;6130316;23;20830;-69
2021/05/07 06:50:21;;;;;;;4.73;2.97;;;7.80;99.90;;;;;;6138047;23;20169;-70
2021/05/07 06:52:47;;;;;;;2.90;2.70;;;7.80;99.90;;;;;;6138424;23;20642;-70
2021/05/07 06:55:13;;;;;;;3.00;2.70;;;7.90;99.90;;;;;;6133142;22;20632;-69
2021/05/07 06:57:39;;;;;;;3.00;2.67;;;7.90;99.90;;;;;;6160648;23;20165;-69
2021/05/07 07:00:06;;;;;;;8.47;4.33;;;8.00;99.90;;;;;;6137712;23;20893;-71
2021/05/07 07:02:33;;;;;;;3.23;2.97;;;7.90;99.90;;;;;;6141459;23;20541;-68
2021/05/07 07:05:00;;;;;;;3.00;2.77;;;7.80;99.90;;;;;;6133006;22;20977;-70
2021/05/07 07:07:27;;;;;;;2.73;2.50;;;7.90;99.90;;;;;;6138014;23;21104;-70
2021/05/07 07:09:53;;;;;;;2.73;2.53;;;8.00;99.90;;;;;;6163300;22;20757;-69
2021/05/07 07:12:20;;;;;;;4.40;3.30;;;8.00;99.90;;;;;;6142922;23;20698;-71
2021/05/07 07:14:45;;;;;;;3.80;3.00;;;8.00;99.90;;;;;;6137898;22;20609;-70
2021/05/07 07:17:11;;;;;;;3.03;2.70;;;8.00;99.90;;;;;;6141549;23;20581;-70
2021/05/07 07:19:37;;;;;;;3.13;2.83;;;8.00;99.90;;;;;;6140974;23;20216;-70
2021/05/07 07:22:04;;;;;;;4.53;3.33;;;8.10;99.90;;;;;;6142522;23;20365;-69
2021/05/07 07:24:30;;;;;;;3.30;3.00;;;8.00;99.90;;;;;;6142933;22;20609;-70
2021/05/07 07:26:55;;;;;;;3.03;2.83;;;8.10;99.90;;;;;;6141767;23;20596;-71
2021/05/07 07:29:21;;;;;;;3.30;3.00;;;8.10;99.90;;;;;;6165831;23;20172;-69
2021/05/07 07:31:47;;;;;;;4.53;3.60;;;8.20;99.90;;;;;;6165980;23;20161;-69
2021/05/07 07:34:15;;;;;;;5.10;3.13;;;8.20;99.90;;;;;;6140872;23;20284;-70
2021/05/07 07:36:41;;;;;;;6.80;3.20;;;8.20;99.90;;;;;;6140225;23;20189;-70
2021/05/07 07:39:06;;;;;;;4.50;3.17;;;8.20;99.90;;;;;;6163829;23;20620;-69
2021/05/07 07:41:32;;;;;;;5.90;2.83;;;8.40;99.90;;;;;;6139571;23;20762;-70
2021/05/07 07:43:58;;;;;;;3.07;2.83;;;8.60;99.90;;;;;;6142143;22;20202;-69
2021/05/07 07:46:24;;;;;;;2.63;2.43;;;8.70;99.90;;;;;;6141365;23;20673;-70
2021/05/07 07:48:49;;;;;;;3.17;2.33;;;8.70;99.90;;;;;;6139378;23;20154;-70
2021/05/07 07:51:15;;;;;;;2.27;2.07;;;8.70;99.90;;;;;;6139727;23;20520;-69
2021/05/07 07:53:43;;;;;;;2.33;2.00;;;8.70;99.90;;;;;;6139745;22;20545;-70
2021/05/07 07:56:09;;;;;;;2.53;2.33;;;8.60;99.90;;;;;;6140696;23;20185;-68
2021/05/07 07:58:34;;;;;;;3.90;2.40;;;8.60;99.90;;;;;;6162464;22;20974;-70
2021/05/07 08:01:00;;;;;;;2.60;2.27;;;8.80;99.90;;;;;;6139436;23;20157;-70
2021/05/07 08:03:28;;;;;;;2.97;2.40;;;8.90;99.90;;;;;;6139843;22;20569;-72
2021/05/07 08:05:53;;;;;;;4.60;2.63;;;8.90;99.90;;;;;;6137139;23;20197;-70
2021/05/07 08:08:19;;;;;;;3.70;2.07;;;8.90;99.90;;;;;;6138948;23;21098;-69
2021/05/07 08:10:44;;;;;;;4.33;2.37;;;9.00;99.90;;;;;;6141396;23;20180;-69
2021/05/07 08:13:10;;;;;;;2.60;2.30;;;9.00;99.90;;;;;;6141126;22;20158;-71
2021/05/07 08:15:36;;;;;;;2.47;2.20;;;9.10;99.90;;;;;;6136853;23;20204;-70
2021/05/07 08:18:01;;;;;;;2.80;2.60;;;9.10;99.90;;;;;;6140369;23;20658;-70
2021/05/07 08:20:28;;;;;;;2.20;2.00;;;9.10;99.90;;;;;;6138070;22;20516;-70
2021/05/07 08:22:54;;;;;;;1.90;1.60;;;9.00;99.90;;;;;;6137186;22;20199;-69
2021/05/07 08:25:20;;;;;;;3.23;2.00;;;8.90;99.90;;;;;;6136762;23;21087;-70
2021/05/07 08:27:46;;;;;;;2.30;1.77;;;8.90;99.90;;;;;;6141390;23;20542;-69
2021/05/07 08:30:13;;;;;;;1.87;1.60;;;8.70;99.90;;;;;;6137273;22;21487;-67
2021/05/07 08:32:40;;;;;;;1.90;1.57;;;8.70;99.90;;;;;;6163666;22;20205;-66
2021/05/07 08:35:06;;;;;;;5.90;1.67;;;8.70;99.90;;;;;;6139477;22;20609;-67
2021/05/07 08:37:32;;;;;;;1.77;1.60;;;8.80;99.90;;;;;;6138033;23;20864;-67
2021/05/07 08:39:57;;;;;;;1.63;1.17;;;8.70;99.90;;;;;;6141110;23;20607;-66
2021/05/07 08:42:23;;;;;;;1.67;1.57;;;8.70;99.90;;;;;;6139605;23;20545;-67
2021/05/07 08:44:50;;;;;;;2.70;1.60;;;8.80;99.90;;;;;;6139227;22;20675;-68
2021/05/07 08:47:20;;;;;;;1.90;1.23;;;8.70;99.90;;;;;;6139039;23;20257;-66
2021/05/07 08:49:50;;;;;;;1.57;1.47;;;8.60;99.90;;;;;;6161373;23;20570;-66
2021/05/07 08:52:17;;;;;;;3.17;1.47;;;8.60;99.90;;;;;;6140485;23;20553;-69
2021/05/07 08:54:42;;;;;;;2.40;1.50;;;8.60;99.90;;;;;;6156848;22;20670;-68
2021/05/07 08:57:08;;;;;;;3.87;1.50;;;8.70;99.90;;;;;;6136227;23;21155;-67
2021/05/07 08:59:34;;;;;;;2.57;1.53;;;8.80;99.90;;;;;;6138332;23;20662;-68
2021/05/07 09:01:59;;;;;;;1.83;1.53;;;8.80;99.90;;;;;;6128018;23;20210;-67
2021/05/07 09:04:27;;;;;;;1.50;1.40;;;8.90;99.90;;;;;;6137607;22;20647;-67
2021/05/07 09:06:53;;;;;;;1.43;1.30;;;9.00;99.90;;;;;;6135646;23;20204;-67
2021/05/07 09:09:28;;;;;;;4.43;1.53;;;9.10;99.90;;;;;;6136615;23;20608;-67
2021/05/07 09:11:55;;;;;;;1.67;1.57;;;9.20;99.90;;;;;;6134744;23;20919;-68
2021/05/07 09:14:22;;;;;;;3.53;1.70;;;9.20;99.90;;;;;;6160764;22;20697;-66
2021/05/07 09:16:55;;;;;;;2.23;1.20;;;9.10;99.90;;;;;;6136326;23;20602;-68
2021/05/07 09:19:22;;;;;;;1.90;1.50;;;9.20;99.90;;;;;;6135772;23;20536;-68
2021/05/07 09:21:48;;;;;;;2.10;1.90;;;9.40;99.90;;;;;;6128732;23;20988;-68
2021/05/07 09:24:14;;;;;;;1.50;1.40;;;9.40;99.90;;;;;;6130887;22;20662;-67
2021/05/07 09:26:50;;;;;;;2.93;2.63;;;9.60;99.90;;;;;;6130860;23;20589;-67
2021/05/07 09:29:21;;;;;;;2.23;1.90;;;9.70;99.90;;;;;;6133818;23;20917;-67
2021/05/07 09:31:49;;;;;;;1.93;1.83;;;9.80;99.90;;;;;;6128494;23;21119;-66
2021/05/07 09:34:16;;;;;;;2.47;1.53;;;9.80;99.90;;;;;;6128483;22;20974;-66
2021/05/07 09:36:44;;;;;;;1.80;1.53;;;9.90;99.90;;;;;;6123552;23;20601;-68
2021/05/07 09:39:15;;;;;;;1.57;1.47;;;10.00;99.90;;;;;;6133169;23;20567;-67
2021/05/07 09:41:43;;;;;;;1.73;1.63;;;10.10;99.90;;;;;;6135087;23;20540;-68
2021/05/07 09:44:28;;;;;;;2.90;1.83;;;10.20;99.90;;;;;;6133319;22;20601;-67
2021/05/07 09:46:54;;;;;;;1.73;1.40;;;10.10;99.90;;;;;;6133847;23;21042;-68
2021/05/07 09:49:32;;;;;;;2.73;1.40;;;9.90;99.90;;;;;;6134873;23;20875;-67
2021/05/07 09:51:59;;;;;;;1.60;1.50;;;9.60;99.90;;;;;;6137694;23;20550;-67
2021/05/07 09:54:25;;;;;;;2.30;1.57;;;9.60;99.90;;;;;;6159466;22;20593;-67
2021/05/07 09:56:54;;;;;;;1.60;1.50;;;9.50;99.90;;;;;;6161418;23;20981;-68
2021/05/07 09:59:21;;;;;;;1.70;1.60;;;9.50;99.90;;;;;;6137159;23;20546;-67
2021/05/07 10:01:47;;;;;;;1.73;1.57;;;9.50;99.90;;;;;;6138726;23;20538;-66
2021/05/07 10:04:15;;;;;;;2.07;1.63;;;9.40;99.90;;;;;;6159388;22;20707;-67
2021/05/07 10:06:41;;;;;;;2.43;1.90;;;9.30;99.90;;;;;;6137851;23;20604;-65
2021/05/07 10:09:08;;;;;;;3.17;1.73;;;9.20;99.90;;;;;;6139050;23;21097;-67
2021/05/07 10:11:42;;;;;;;2.07;1.87;;;9.00;99.90;;;;;;6142338;23;20584;-66
2021/05/07 10:14:13;;;;;;;2.80;1.80;;;9.10;99.90;;;;;;6160125;22;20700;-67
2021/05/07 10:16:39;;;;;;;2.33;2.13;;;9.10;99.90;;;;;;6141459;23;20561;-67
2021/05/07 10:19:07;;;;;;;3.33;2.20;;;9.30;99.90;;;;;;6141548;23;20542;-67
2021/05/07 10:22:03;;;;;;;3.70;2.40;;;9.40;99.90;;;;;;6165515;23;20569;-67
2021/05/07 10:24:36;;;;;;;2.20;2.10;;;9.50;99.90;;;;;;6139095;22;20797;-67
2021/05/07 10:27:12;;;;;;;2.00;1.90;;;9.50;99.90;;;;;;6140555;23;20599;-67
2021/05/07 10:29:49;;;;;;;1.83;1.73;;;9.70;99.90;;;;;;6139452;23;20603;-66
2021/05/07 10:32:15;;;;;;;1.80;1.70;;;9.90;99.90;;;;;;6139644;23;20891;-67
2021/05/07 10:34:43;;;;;;;2.87;2.03;;;9.80;99.90;;;;;;6140452;22;21118;-66
2021/05/07 10:37:13;;;;;;;2.10;1.90;;;9.80;99.90;;;;;;6143591;23;20196;-68
2021/05/07 10:39:53;;;;;;;1.93;1.80;;;9.80;99.90;;;;;;6139116;23;21258;-67
2021/05/07 10:42:20;;;;;;;2.83;1.70;;;9.80;99.90;;;;;;6139708;23;21107;-67
2021/05/07 10:44:46;;;;;;;1.90;1.53;;;9.90;99.90;;;;;;6135599;22;20620;-68
2021/05/07 10:47:13;;;;;;;1.40;1.30;;;9.80;99.90;;;;;;6158846;23;20903;-69
2021/05/07 10:49:46;;;;;;;1.63;1.53;;;9.80;99.90;;;;;;6144469;23;20168;-70
2021/05/07 10:52:15;;;;;;;1.87;1.23;;;9.80;99.90;;;;;;6140386;23;20534;-69
2021/05/07 10:54:44;;;;;;;4.07;1.70;;;9.90;99.90;;;;;;6140850;22;20937;-70
2021/05/07 10:57:28;;;;;;;1.50;1.40;;;10.00;99.90;;;;;;6141890;22;20673;-70
2021/05/07 10:59:53;;;;;;;2.37;1.50;;;10.20;99.90;;;;;;6142560;23;21100;-73
2021/05/07 11:02:24;;;;;;;2.63;1.50;;;10.30;99.90;;;;;;6143653;23;20545;-70
2021/05/07 11:04:50;;;;;;;1.73;1.40;;;10.40;99.90;;;;;;6141032;22;20209;-70
2021/05/07 11:07:30;;;;;;;1.87;1.60;;;10.60;99.90;;;;;;6138538;23;21143;-70
2021/05/07 11:10:13;;;;;;;2.90;1.40;;;10.80;99.90;;;;;;6141782;23;20498;-68
2021/05/07 11:12:43;;;;;;;2.43;1.20;;;11.00;99.90;;;;;;6140390;23;20897;-68
2021/05/07 11:15:16;;;;;;;1.23;0.93;;;11.00;99.90;;;;;;6136561;22;20599;-66
2021/05/07 11:17:44;;;;;;;1.63;1.00;;;11.00;99.90;;;;;;6137010;23;20541;-66
2021/05/07 11:20:11;;;;;;;1.63;1.23;;;11.00;99.90;;;;;;6130758;23;20526;-66
2021/05/07 11:22:39;;;;;;;1.00;1.00;;;11.00;99.90;;;;;;6133973;23;20565;-66
2021/05/07 11:25:07;;;;;;;1.33;1.10;;;11.10;99.90;;;;;;6133434;22;20678;-67
2021/05/07 11:27:32;;;;;;;1.67;1.57;;;11.00;99.90;;;;;;6156701;23;20564;-67
2021/05/07 11:30:03;;;;;;;1.30;1.20;;;11.00;99.90;;;;;;6140057;23;20602;-67
2021/05/07 11:32:29;;;;;;;1.70;1.47;;;11.00;99.90;;;;;;6135890;23;20664;-69
2021/05/07 11:35:07;;;;;;;1.20;1.10;;;10.90;99.90;;;;;;6154314;22;20605;-68
2021/05/07 11:37:33;;;;;;;1.53;1.43;;;10.80;99.90;;;;;;6132456;23;20146;-68
2021/05/07 11:40:11;;;;;;;2.40;1.40;;;10.60;99.90;;;;;;6131927;23;20632;-67
2021/05/07 11:42:39;;;;;;;3.50;1.40;;;10.70;99.90;;;;;;6131247;23;20568;-70
2021/05/07 11:45:20;;;;;;;2.17;1.37;;;10.90;99.90;;;;;;6156712;22;20665;-68
2021/05/07 11:47:46;;;;;;;1.57;1.47;;;11.10;99.90;;;;;;6129949;23;20508;-68
2021/05/07 11:50:17;;;;;;;1.83;1.50;;;11.30;99.90;;;;;;6134839;23;20569;-68
2021/05/07 11:52:45;;;;;;;2.20;1.23;;;11.30;99.90;;;;;;6129428;23;20648;-68
2021/05/07 11:55:18;;;;;;;1.60;1.50;;;11.30;99.90;;;;;;6132546;22;20597;-67
2021/05/07 11:57:44;;;;;;;1.33;1.00;;;11.40;99.90;;;;;;6136335;23;20652;-67
2021/05/07 12:00:18;;;;;;;1.83;1.20;;;11.50;99.90;;;;;;6133214;23;20537;-65
2021/05/07 12:02:44;;;;;;;2.30;1.27;;;11.70;99.90;;;;;;6130238;23;20921;-69
2021/05/07 12:05:10;;;;;;;1.30;1.10;;;12.00;99.90;;;;;;6134379;22;20609;-66
2021/05/07 12:07:39;;;;;;;1.50;1.40;;;12.20;99.90;;;;;;6133800;23;20165;-67
2021/05/07 12:10:05;;;;;;;1.27;1.17;;;12.30;99.90;;;;;;6159466;23;20577;-66
2021/05/07 12:12:42;;;;;;;2.47;1.50;;;12.40;99.90;;;;;;6140677;23;20549;-67
2021/05/07 12:15:11;;;;;;;1.50;1.40;;;12.50;99.90;;;;;;6135437;22;20604;-67
2021/05/07 12:17:42;;;;;;;3.53;1.47;;;12.70;99.90;;;;;;6132014;23;20584;-67
2021/05/07 12:20:09;;;;;;;2.57;1.10;;;12.50;99.90;;;;;;6134594;23;20545;-68
2021/05/07 12:22:35;;;;;;;4.27;1.57;;;12.40;99.90;;;;;;6133216;23;20538;-67
2021/05/07 12:25:11;;;;;;;2.43;1.40;;;12.30;99.90;;;;;;6151024;22;20617;-66
2021/05/07 12:27:38;;;;;;;2.03;1.63;;;12.20;99.90;;;;;;6135856;23;20529;-68
2021/05/07 12:30:31;;;;;;;1.30;1.20;;;12.20;99.90;;;;;;6133605;23;20529;-64
2021/05/07 12:33:04;;;;;;;1.50;1.43;;;12.10;99.90;;;;;;6128406;22;21110;-70
2021/05/07 12:37:59;;;;;;;1.50;1.40;;;11.80;99.90;;;;;;6178840;23;21158;-60
2021/05/07 12:40:27;;;;;;;2.60;1.90;;;11.70;99.90;;;;;;6169493;22;21022;-60
2021/05/07 12:42:52;;;;;;;1.57;1.30;;;11.50;99.90;;;;;;6166647;23;20847;-59
2021/05/07 12:45:18;;;;;;;2.10;1.37;;;11.40;99.90;;;;;;6161946;23;20583;-61
2021/05/07 12:47:46;;;;;;;1.90;1.50;;;11.40;99.90;;;;;;6138496;22;20149;-59
2021/05/07 12:50:12;;;;;;;2.20;1.50;;;11.20;99.90;;;;;;6133575;23;20177;-60
2021/05/07 12:52:38;;;;;;;1.33;1.10;;;11.10;99.90;;;;;;6136568;22;20538;-60
2021/05/07 12:55:04;;;;;;;1.57;1.47;;;11.00;99.90;;;;;;6134874;22;20212;-61
2021/05/07 12:57:30;;;;;;;1.40;1.30;;;10.90;99.90;;;;;;6140527;22;20553;-60
2021/05/07 12:59:55;;;;;;;3.50;1.70;;;10.80;99.90;;;;;;6140017;22;20540;-61
2021/05/07 13:02:21;;;;;;;3.80;1.60;;;10.70;99.90;;;;;;6113093;23;20158;-62
2021/05/07 13:04:46;;;;;;;1.50;1.40;;;10.80;99.90;;;;;;6132285;22;20208;-61
2021/05/07 13:07:12;;;;;;;2.30;1.93;;;10.80;99.90;;;;;;6135943;22;20178;-60